createdAt,value
2023-07-10T00:00:20.125Z,4.10
2023-07-10T00:01:20.128Z,4.60
2023-07-10T00:02:20.134Z,3.70
2023-07-10T00:03:20.123Z,4.80
2023-07-10T00:04:20.086Z,3.60
2023-07-10T00:05:20.076Z,3.60
2023-07-10T00:06:20.061Z,4.00
2023-07-10T00:07:20.067Z,5.10
2023-07-10T00:08:20.042Z,3.40
2023-07-10T00:09:20.038Z,4.00
2023-07-10T00:10:20.036Z,3.80
2023-07-10T00:11:20.010Z,3.60
2023-07-10T00:12:20.021Z,3.20
2023-07-10T00:13:19.982Z,4.50
2023-07-10T00:14:19.994Z,5.80
2023-07-10T00:15:19.961Z,3.60
2023-07-10T00:16:20.018Z,3.60
2023-07-10T00:17:20.067Z,5.10
2023-07-10T00:18:19.941Z,3.30
2023-07-10T00:19:22.546Z,5.70
2023-07-10T00:20:19.922Z,3.30
2023-07-10T00:21:19.930Z,3.70
2023-07-10T00:22:19.898Z,3.80
2023-07-10T00:23:19.903Z,4.30
2023-07-10T00:24:19.873Z,3.30
2023-07-10T00:25:19.887Z,3.80
2023-07-10T00:26:19.867Z,3.50
2023-07-10T00:27:19.845Z,6.30
2023-07-10T00:28:19.830Z,2.50
2023-07-10T00:29:19.814Z,5.80
2023-07-10T00:30:19.833Z,4.50
2023-07-10T00:31:19.858Z,3.40
2023-07-10T00:32:19.938Z,3.10
2023-07-10T00:33:19.806Z,3.50
2023-07-10T00:34:19.779Z,5.00
2023-07-10T00:35:19.782Z,4.50
2023-07-10T00:36:19.748Z,3.80
2023-07-10T00:37:19.761Z,4.10
2023-07-10T00:38:19.732Z,9.50
2023-07-10T00:39:19.741Z,5.70
2023-07-10T00:40:19.733Z,4.50
2023-07-10T00:41:19.708Z,4.00
2023-07-10T00:42:19.707Z,6.10
2023-07-10T00:43:19.674Z,2.70
2023-07-10T00:44:19.701Z,3.80
2023-07-10T00:45:19.649Z,6.70
2023-07-10T00:46:19.681Z,3.60
2023-07-10T00:47:19.728Z,3.10
2023-07-10T00:48:19.626Z,4.10
2023-07-10T00:49:19.626Z,4.30
2023-07-10T00:50:19.615Z,4.10
2023-07-10T00:51:19.596Z,3.30
2023-07-10T00:52:19.597Z,4.60
2023-07-10T00:53:19.581Z,3.70
2023-07-10T00:54:19.585Z,4.80
2023-07-10T00:55:19.549Z,4.40
2023-07-10T00:56:19.551Z,4.90
2023-07-10T00:57:19.528Z,3.90
2023-07-10T00:58:28.873Z,3.50
2023-07-10T00:59:19.509Z,4.20
2023-07-10T01:00:19.520Z,4.40
2023-07-10T01:01:19.522Z,3.30
2023-07-10T01:02:19.520Z,2.70
2023-07-10T01:03:19.579Z,4.80
2023-07-10T01:04:19.467Z,5.00
2023-07-10T01:05:19.457Z,6.50
2023-07-10T01:06:19.435Z,3.40
2023-07-10T01:07:19.448Z,3.70
2023-07-10T01:08:19.470Z,3.60
2023-07-10T01:09:19.425Z,6.30
2023-07-10T01:10:19.395Z,3.30
2023-07-10T01:11:19.392Z,4.10
2023-07-10T01:12:19.388Z,5.20
2023-07-10T01:13:19.361Z,5.00
2023-07-10T01:14:19.360Z,6.60
2023-07-10T01:15:19.339Z,6.10
2023-07-10T01:16:19.417Z,4.40
2023-07-10T01:17:19.331Z,4.20
2023-07-10T01:18:19.311Z,6.10
2023-07-10T01:19:19.293Z,3.50
2023-07-10T01:20:19.300Z,4.10
2023-07-10T01:21:19.304Z,6.60
2023-07-10T01:22:19.268Z,5.00
2023-07-10T01:23:19.270Z,6.10
2023-07-10T01:24:19.255Z,5.00
2023-07-10T01:25:19.236Z,3.60
2023-07-10T01:26:19.263Z,5.00
2023-07-10T01:27:19.210Z,4.00
2023-07-10T01:28:19.211Z,5.60
2023-07-10T01:29:19.198Z,4.00
2023-07-10T01:30:19.216Z,6.00
2023-07-10T01:31:19.211Z,4.60
2023-07-10T01:32:19.192Z,6.20
2023-07-10T01:33:19.150Z,5.10
2023-07-10T01:34:19.154Z,4.40
2023-07-10T01:35:19.146Z,4.30
2023-07-10T01:36:19.180Z,4.40
2023-07-10T01:37:19.112Z,6.00
2023-07-10T01:38:19.099Z,6.40
2023-07-10T01:39:19.084Z,6.30
2023-07-10T01:40:19.100Z,4.30
2023-07-10T01:41:19.077Z,6.10
2023-07-10T01:42:19.055Z,3.70
2023-07-10T01:43:19.048Z,6.30
2023-07-10T01:44:19.074Z,4.90
2023-07-10T01:45:19.045Z,6.30
2023-07-10T01:46:19.366Z,5.20
2023-07-10T01:47:19.063Z,6.80
2023-07-10T01:48:19.084Z,5.00
2023-07-10T01:49:19.056Z,4.50
2023-07-10T01:50:18.973Z,5.20
2023-07-10T01:51:18.972Z,4.10
2023-07-10T01:52:18.947Z,5.80
2023-07-10T01:53:18.939Z,2.90
2023-07-10T01:54:18.949Z,4.30
2023-07-10T01:55:18.926Z,6.10
2023-07-10T01:56:18.929Z,5.80
2023-07-10T01:57:18.904Z,6.50
2023-07-10T01:58:19.575Z,6.90
2023-07-10T01:59:18.899Z,4.40
2023-07-10T02:00:18.863Z,3.70
2023-07-10T02:01:18.897Z,5.60
2023-07-10T02:02:18.846Z,4.50
2023-07-10T02:03:19.029Z,4.60
2023-07-10T02:04:18.860Z,4.70
2023-07-10T02:05:18.820Z,4.60
2023-07-10T02:06:18.799Z,4.20
2023-07-10T02:07:18.799Z,3.90
2023-07-10T02:08:18.799Z,5.10
2023-07-10T02:09:18.795Z,4.30
2023-07-10T02:10:20.791Z,5.90
2023-07-10T02:11:18.814Z,7.30
2023-07-10T02:12:18.764Z,4.40
2023-07-10T02:13:18.756Z,3.70
2023-07-10T02:14:18.724Z,6.30
2023-07-10T02:15:18.858Z,7.50
2023-07-10T02:16:18.821Z,5.70
2023-07-10T02:17:18.832Z,4.10
2023-07-10T02:18:18.730Z,4.60
2023-07-10T02:19:18.668Z,4.30
2023-07-10T02:20:18.659Z,4.70
2023-07-10T02:22:18.659Z,4.70
2023-07-10T02:23:18.640Z,5.60
2023-07-10T02:24:18.639Z,6.20
2023-07-10T02:25:18.615Z,4.40
2023-07-10T02:26:18.620Z,5.50
2023-07-10T02:27:18.584Z,4.10
2023-07-10T02:28:18.588Z,5.60
2023-07-10T02:29:18.613Z,5.90
2023-07-10T02:30:18.560Z,5.50
2023-07-10T02:31:18.648Z,5.50
2023-07-10T02:32:18.525Z,4.50
2023-07-10T02:33:18.520Z,4.60
2023-07-10T02:34:18.498Z,5.10
2023-07-10T02:35:18.518Z,5.60
2023-07-10T02:36:18.494Z,9.30
2023-07-10T02:37:18.487Z,4.20
2023-07-10T02:38:18.457Z,7.30
2023-07-10T02:39:18.458Z,7.30
2023-07-10T02:40:18.452Z,5.70
2023-07-10T02:41:18.432Z,5.00
2023-07-10T02:42:18.440Z,4.40
2023-07-10T02:43:18.414Z,4.30
2023-07-10T02:44:18.348Z,6.50
2023-07-10T02:45:18.412Z,3.50
2023-07-10T02:46:18.445Z,4.40
2023-07-10T02:47:18.377Z,4.80
2023-07-10T02:48:18.463Z,5.50
2023-07-10T02:49:18.330Z,3.10
2023-07-10T02:50:18.283Z,5.30
2023-07-10T02:51:18.285Z,4.80
2023-07-10T02:52:18.269Z,4.80
2023-07-10T02:53:18.320Z,9.60
2023-07-10T02:54:18.311Z,4.70
2023-07-10T02:55:18.304Z,8.00
2023-07-10T02:56:18.232Z,5.20
2023-07-10T02:57:18.250Z,4.70
2023-07-10T02:58:18.270Z,5.30
2023-07-10T02:59:18.230Z,4.10
2023-07-10T03:00:18.245Z,5.70
2023-07-10T03:01:18.264Z,4.00
2023-07-10T03:02:18.217Z,4.60
2023-07-10T03:03:18.180Z,4.50
2023-07-10T03:04:18.141Z,4.20
2023-07-10T03:05:18.176Z,5.10
2023-07-10T03:06:18.118Z,6.90
2023-07-10T03:07:18.114Z,6.20
2023-07-10T03:08:18.117Z,6.40
2023-07-10T03:09:18.102Z,5.00
2023-07-10T03:10:18.085Z,6.50
2023-07-10T03:11:18.072Z,4.70
2023-07-10T03:12:18.081Z,6.60
2023-07-10T03:13:18.074Z,5.10
2023-07-10T03:14:18.047Z,5.70
2023-07-10T03:15:18.043Z,5.50
2023-07-10T03:16:18.085Z,5.80
2023-07-10T03:17:18.027Z,4.70
2023-07-10T03:18:18.002Z,6.30
2023-07-10T03:19:17.992Z,3.50
2023-07-10T03:20:17.980Z,5.80
2023-07-10T03:21:17.981Z,3.80
2023-07-10T03:22:17.974Z,3.60
2023-07-10T03:23:17.949Z,4.30
2023-07-10T03:24:17.927Z,6.50
2023-07-10T03:25:17.927Z,4.30
2023-07-10T03:26:17.918Z,5.10
2023-07-10T03:27:17.902Z,4.00
2023-07-10T03:28:17.899Z,4.70
2023-07-10T03:29:17.875Z,5.60
2023-07-10T03:30:17.872Z,6.00
2023-07-10T03:31:17.928Z,4.80
2023-07-10T03:32:17.845Z,4.10
2023-07-10T03:33:17.855Z,5.40
2023-07-10T03:34:17.817Z,4.00
2023-07-10T03:35:17.835Z,5.20
2023-07-10T03:36:17.824Z,5.70
2023-07-10T03:37:17.797Z,5.00
2023-07-10T03:38:17.785Z,6.50
2023-07-10T03:39:17.775Z,4.40
2023-07-10T03:40:17.770Z,5.60
2023-07-10T03:41:17.760Z,6.60
2023-07-10T03:42:17.736Z,6.60
2023-07-10T03:43:17.733Z,4.00
2023-07-10T03:44:17.713Z,6.50
2023-07-10T03:45:17.726Z,4.80
2023-07-10T03:46:17.725Z,5.20
2023-07-10T03:47:17.707Z,5.20
2023-07-10T03:48:17.670Z,5.90
2023-07-10T03:49:17.685Z,6.50
2023-07-10T03:50:17.669Z,5.30
2023-07-10T03:51:17.654Z,5.20
2023-07-10T03:52:17.635Z,5.70
2023-07-10T03:53:17.629Z,5.10
2023-07-10T03:54:17.620Z,5.60
2023-07-10T03:55:17.610Z,4.40
2023-07-10T03:56:17.599Z,4.10
2023-07-10T03:57:17.610Z,5.70
2023-07-10T03:58:17.591Z,5.00
2023-07-10T03:59:17.592Z,4.60
2023-07-10T04:00:17.549Z,4.80
2023-07-10T04:01:17.579Z,4.90
2023-07-10T04:02:17.539Z,5.70
2023-07-10T04:03:17.647Z,5.90
2023-07-10T04:04:17.507Z,6.70
2023-07-10T04:05:17.502Z,5.60
2023-07-10T04:06:17.531Z,4.10
2023-07-10T04:07:17.496Z,4.50
2023-07-10T04:08:17.482Z,4.40
2023-07-10T04:09:17.463Z,5.00
2023-07-10T04:10:17.453Z,5.60
2023-07-10T04:11:17.437Z,5.30
2023-07-10T04:12:17.444Z,5.80
2023-07-10T04:13:17.451Z,5.30
2023-07-10T04:14:17.496Z,5.20
2023-07-10T04:15:17.403Z,5.80
2023-07-10T04:16:17.434Z,6.00
2023-07-10T04:17:17.386Z,9.40
2023-07-10T04:18:17.360Z,3.60
2023-07-10T04:19:17.356Z,5.20
2023-07-10T04:20:17.334Z,9.30
2023-07-10T04:21:17.334Z,4.80
2023-07-10T04:22:17.340Z,8.50
2023-07-10T04:23:17.318Z,6.10
2023-07-10T04:24:17.291Z,3.70
2023-07-10T04:25:17.296Z,6.30
2023-07-10T04:26:17.288Z,6.10
2023-07-10T04:27:17.292Z,8.00
2023-07-10T04:28:17.269Z,4.30
2023-07-10T04:29:17.253Z,6.40
2023-07-10T04:30:17.228Z,4.20
2023-07-10T04:31:17.265Z,6.80
2023-07-10T04:32:17.233Z,4.10
2023-07-10T04:33:17.210Z,4.40
2023-07-10T04:34:17.193Z,6.90
2023-07-10T04:35:17.210Z,6.20
2023-07-10T04:36:17.196Z,5.50
2023-07-10T04:37:17.168Z,5.70
2023-07-10T04:38:17.148Z,4.90
2023-07-10T04:39:17.137Z,5.30
2023-07-10T04:40:17.153Z,9.80
2023-07-10T04:41:17.146Z,5.40
2023-07-10T04:42:17.110Z,4.50
2023-07-10T04:43:17.101Z,8.40
2023-07-10T04:44:17.096Z,6.90
2023-07-10T04:45:17.092Z,7.30
2023-07-10T04:46:17.101Z,6.40
2023-07-10T04:47:17.176Z,5.80
2023-07-10T04:48:17.397Z,5.10
2023-07-10T04:49:17.052Z,6.30
2023-07-10T04:50:17.032Z,5.20
2023-07-10T04:51:17.016Z,7.90
2023-07-10T04:52:17.013Z,6.90
2023-07-10T04:53:16.990Z,4.50
2023-07-10T04:54:16.990Z,8.50
2023-07-10T04:55:16.992Z,7.00
2023-07-10T04:56:16.960Z,6.60
2023-07-10T04:57:16.958Z,6.30
2023-07-10T04:58:16.934Z,5.10
2023-07-10T04:59:16.962Z,5.90
2023-07-10T05:00:16.921Z,6.80
2023-07-10T05:01:16.920Z,7.10
2023-07-10T05:02:16.945Z,9.20
2023-07-10T05:03:16.912Z,11.20
2023-07-10T05:04:17.020Z,9.30
2023-07-10T05:05:16.871Z,9.50
2023-07-10T05:06:16.855Z,7.80
2023-07-10T05:07:16.856Z,8.70
2023-07-10T05:08:16.846Z,11.80
2023-07-10T05:09:16.821Z,9.30
2023-07-10T05:10:16.819Z,10.40
2023-07-10T05:11:16.840Z,11.10
2023-07-10T05:12:16.797Z,10.40
2023-07-10T05:13:16.822Z,12.00
2023-07-10T05:14:16.903Z,9.40
2023-07-10T05:15:16.766Z,9.80
2023-07-10T05:16:16.766Z,11.90
2023-07-10T05:17:16.779Z,17.00
2023-07-10T05:18:16.751Z,11.90
2023-07-10T05:19:16.725Z,10.30
2023-07-10T05:20:16.704Z,14.00
2023-07-10T05:21:16.705Z,13.30
2023-07-10T05:22:16.702Z,11.70
2023-07-10T05:23:16.684Z,11.90
2023-07-10T05:24:16.666Z,11.70
2023-07-10T05:25:16.678Z,10.10
2023-07-10T05:26:16.646Z,12.30
2023-07-10T05:27:16.695Z,13.10
2023-07-10T05:28:16.629Z,11.10
2023-07-10T05:29:16.624Z,12.00
2023-07-10T05:30:16.622Z,11.60
2023-07-10T05:31:16.636Z,11.40
2023-07-10T05:32:16.606Z,11.50
2023-07-10T05:33:16.575Z,11.60
2023-07-10T05:34:16.574Z,10.20
2023-07-10T05:35:16.573Z,10.70
2023-07-10T05:36:16.556Z,10.20
2023-07-10T05:37:16.534Z,12.90
2023-07-10T05:38:16.519Z,11.80
2023-07-10T05:39:16.511Z,12.30
2023-07-10T05:40:16.521Z,11.10
2023-07-10T05:41:16.523Z,10.80
2023-07-10T05:42:16.477Z,10.20
2023-07-10T05:43:16.465Z,10.10
2023-07-10T05:44:16.457Z,8.60
2023-07-10T05:45:16.458Z,14.00
2023-07-10T05:46:16.495Z,10.50
2023-07-10T05:47:16.451Z,9.30
2023-07-10T05:48:18.126Z,9.70
2023-07-10T05:49:16.410Z,17.40
2023-07-10T05:50:16.412Z,12.10
2023-07-10T05:51:16.394Z,9.30
2023-07-10T05:52:16.374Z,12.80
2023-07-10T05:53:16.356Z,10.70
2023-07-10T05:54:16.355Z,11.80
2023-07-10T05:55:16.353Z,10.00
2023-07-10T05:56:16.314Z,10.10
2023-07-10T05:57:16.327Z,9.30
2023-07-10T05:58:16.342Z,13.30
2023-07-10T05:59:16.314Z,13.20
2023-07-10T06:00:16.311Z,14.00
2023-07-10T06:01:16.301Z,12.80
2023-07-10T06:02:16.264Z,16.20
2023-07-10T06:03:16.299Z,13.00
2023-07-10T06:04:16.340Z,11.10
2023-07-10T06:05:16.224Z,13.50
2023-07-10T06:06:16.229Z,12.80
2023-07-10T06:07:16.213Z,12.20
2023-07-10T06:08:16.281Z,13.30
2023-07-10T06:09:16.248Z,12.30
2023-07-10T06:10:16.175Z,12.10
2023-07-10T06:11:16.185Z,10.60
2023-07-10T06:12:16.152Z,10.90
2023-07-10T06:13:16.157Z,11.50
2023-07-10T06:14:16.199Z,13.30
2023-07-10T06:15:17.650Z,10.20
2023-07-10T06:16:16.164Z,10.90
2023-07-10T06:17:16.106Z,12.50
2023-07-10T06:18:16.116Z,12.50
2023-07-10T06:19:16.078Z,8.10
2023-07-10T06:20:16.087Z,11.40
2023-07-10T06:21:16.055Z,15.20
2023-07-10T06:22:16.125Z,13.00
2023-07-10T06:23:16.052Z,10.80
2023-07-10T06:24:16.031Z,12.30
2023-07-10T06:25:16.027Z,11.10
2023-07-10T06:26:16.010Z,10.20
2023-07-10T06:27:16.038Z,12.30
2023-07-10T06:28:16.006Z,11.90
2023-07-10T06:29:15.976Z,11.50
2023-07-10T06:30:15.972Z,9.80
2023-07-10T06:31:15.966Z,14.00
2023-07-10T06:32:15.974Z,11.80
2023-07-10T06:33:15.940Z,11.50
2023-07-10T06:34:15.929Z,10.70
2023-07-10T06:35:15.924Z,13.40
2023-07-10T06:36:15.934Z,16.50
2023-07-10T06:37:15.976Z,10.00
2023-07-10T06:38:16.056Z,11.60
2023-07-10T06:39:15.877Z,12.60
2023-07-10T06:40:15.888Z,12.50
2023-07-10T06:41:16.118Z,11.50
2023-07-10T06:42:15.856Z,13.70
2023-07-10T06:43:15.841Z,15.00
2023-07-10T06:44:15.841Z,12.70
2023-07-10T06:45:15.822Z,11.90
2023-07-10T06:46:15.948Z,12.30
2023-07-10T06:47:15.791Z,13.20
2023-07-10T06:48:15.817Z,12.40
2023-07-10T06:49:15.779Z,15.10
2023-07-10T06:50:15.843Z,15.50
2023-07-10T06:51:15.759Z,14.40
2023-07-10T06:52:15.744Z,13.00
2023-07-10T06:53:25.809Z,12.30
2023-07-10T06:54:15.736Z,12.70
2023-07-10T06:55:15.737Z,11.90
2023-07-10T06:56:15.751Z,13.80
2023-07-10T06:57:15.718Z,16.60
2023-07-10T06:58:15.682Z,12.90
2023-07-10T06:59:15.672Z,12.50
2023-07-10T07:00:15.730Z,14.80
2023-07-10T07:01:15.670Z,14.90
2023-07-10T07:02:15.645Z,11.90
2023-07-10T07:03:15.732Z,16.60
2023-07-10T07:04:15.648Z,14.90
2023-07-10T07:05:15.621Z,14.90
2023-07-10T07:06:15.600Z,12.10
2023-07-10T07:07:15.584Z,12.10
2023-07-10T07:08:15.579Z,12.10
2023-07-10T07:09:15.609Z,10.90
2023-07-10T07:10:15.568Z,13.90
2023-07-10T07:11:15.535Z,13.80
2023-07-10T07:12:15.534Z,13.30
2023-07-10T07:13:15.561Z,12.20
2023-07-10T07:14:15.595Z,15.40
2023-07-10T07:15:15.516Z,12.20
2023-07-10T07:16:15.499Z,12.30
2023-07-10T07:17:15.529Z,10.50
2023-07-10T07:18:15.489Z,13.70
2023-07-10T07:19:15.455Z,15.50
2023-07-10T07:20:15.477Z,13.30
2023-07-10T07:21:15.434Z,12.60
2023-07-10T07:22:15.456Z,12.90
2023-07-10T07:23:15.434Z,14.90
2023-07-10T07:24:15.436Z,14.40
2023-07-10T07:25:15.416Z,14.30
2023-07-10T07:26:15.410Z,14.10
2023-07-10T07:27:15.445Z,15.10
2023-07-10T07:28:15.660Z,14.20
2023-07-10T07:29:15.365Z,15.40
2023-07-10T07:30:15.384Z,15.00
2023-07-10T07:31:15.337Z,15.60
2023-07-10T07:32:15.349Z,16.50
2023-07-10T07:33:15.318Z,14.80
2023-07-10T07:34:15.305Z,12.70
2023-07-10T07:35:15.311Z,14.10
2023-07-10T07:36:15.297Z,17.80
2023-07-10T07:37:15.319Z,16.60
2023-07-10T07:38:15.261Z,17.40
2023-07-10T07:39:15.276Z,15.90
2023-07-10T07:40:15.315Z,16.50
2023-07-10T07:41:15.250Z,17.00
2023-07-10T07:42:15.265Z,18.80
2023-07-10T07:43:15.218Z,15.30
2023-07-10T07:44:15.200Z,16.20
2023-07-10T07:45:15.190Z,18.70
2023-07-10T07:46:15.218Z,17.40
2023-07-10T07:47:15.181Z,16.60
2023-07-10T07:48:15.194Z,18.60
2023-07-10T07:49:15.173Z,17.60
2023-07-10T07:50:15.140Z,19.60
2023-07-10T07:51:15.152Z,18.50
2023-07-10T07:52:15.123Z,14.50
2023-07-10T07:53:15.125Z,18.60
2023-07-10T07:54:15.107Z,18.60
2023-07-10T07:55:15.116Z,14.80
2023-07-10T07:56:15.435Z,13.70
2023-07-10T07:57:15.067Z,15.50
2023-07-10T07:58:15.060Z,15.10
2023-07-10T07:59:15.065Z,17.50
2023-07-10T08:00:15.134Z,17.30
2023-07-10T08:01:15.030Z,14.80
2023-07-10T08:02:15.022Z,17.50
2023-07-10T08:03:15.145Z,15.00
2023-07-10T08:04:15.109Z,11.10
2023-07-10T08:05:32.984Z,13.50
2023-07-10T08:06:14.974Z,17.00
2023-07-10T08:07:14.968Z,14.30
2023-07-10T08:08:14.960Z,15.20
2023-07-10T08:09:14.954Z,13.80
2023-07-10T08:10:15.370Z,14.50
2023-07-10T08:11:14.972Z,13.50
2023-07-10T08:12:14.908Z,12.20
2023-07-10T08:13:14.897Z,14.20
2023-07-10T08:14:15.522Z,13.80
2023-07-10T08:15:14.900Z,13.30
2023-07-10T08:16:14.917Z,11.50
2023-07-10T08:17:14.855Z,12.00
2023-07-10T08:18:14.877Z,10.30
2023-07-10T08:19:14.856Z,10.20
2023-07-10T08:20:14.832Z,8.60
2023-07-10T08:21:14.813Z,10.90
2023-07-10T08:22:14.810Z,9.90
2023-07-10T08:23:14.820Z,10.50
2023-07-10T08:24:14.789Z,10.20
2023-07-10T08:25:14.778Z,10.30
2023-07-10T08:26:14.774Z,6.90
2023-07-10T08:27:14.750Z,9.50
2023-07-10T08:28:14.761Z,8.10
2023-07-10T08:29:14.726Z,7.20
2023-07-10T08:30:14.751Z,9.40
2023-07-10T08:31:14.751Z,5.60
2023-07-10T08:32:14.737Z,8.90
2023-07-10T08:33:14.731Z,5.70
2023-07-10T08:34:14.693Z,7.70
2023-07-10T08:35:14.669Z,8.80
2023-07-10T08:36:14.678Z,6.60
2023-07-10T08:37:14.702Z,6.80
2023-07-10T08:38:14.641Z,6.50
2023-07-10T08:39:14.626Z,7.10
2023-07-10T08:40:14.617Z,9.40
2023-07-10T08:41:14.613Z,6.20
2023-07-10T08:42:14.615Z,5.20
2023-07-10T08:43:14.588Z,5.90
2023-07-10T08:44:14.573Z,6.80
2023-07-10T08:45:16.249Z,5.30
2023-07-10T08:46:14.722Z,6.60
2023-07-10T08:47:14.603Z,7.90
2023-07-10T08:48:14.667Z,5.90
2023-07-10T08:49:14.540Z,5.40
2023-07-10T08:50:14.521Z,6.00
2023-07-10T08:51:16.440Z,4.80
2023-07-10T08:52:14.515Z,4.90
2023-07-10T08:53:14.475Z,4.70
2023-07-10T08:54:14.478Z,5.50
2023-07-10T08:55:14.492Z,7.00
2023-07-10T08:56:14.482Z,5.10
2023-07-10T08:57:14.450Z,3.60
2023-07-10T08:58:14.435Z,4.40
2023-07-10T08:59:14.422Z,4.70
2023-07-10T09:00:14.447Z,6.50
2023-07-10T09:01:14.407Z,7.00
2023-07-10T09:02:14.564Z,5.30
2023-07-10T09:03:14.442Z,6.00
2023-07-10T09:04:14.415Z,7.30
2023-07-10T09:05:14.463Z,4.90
2023-07-10T09:06:14.352Z,3.90
2023-07-10T09:07:14.334Z,4.90
2023-07-10T09:08:14.345Z,5.50
2023-07-10T09:09:14.333Z,3.40
2023-07-10T09:10:14.334Z,5.30
2023-07-10T09:11:14.322Z,7.20
2023-07-10T09:12:14.306Z,5.50
2023-07-10T09:13:14.295Z,3.20
2023-07-10T09:14:14.404Z,3.70
2023-07-10T09:15:14.267Z,4.50
2023-07-10T09:16:14.286Z,5.30
2023-07-10T09:17:14.311Z,4.10
2023-07-10T09:18:14.274Z,3.30
2023-07-10T09:19:14.217Z,6.20
2023-07-10T09:20:14.221Z,4.80
2023-07-10T09:21:14.186Z,4.80
2023-07-10T09:22:14.181Z,4.70
2023-07-10T09:23:14.203Z,5.60
2023-07-10T09:24:14.180Z,6.50
2023-07-10T09:25:14.142Z,5.70
2023-07-10T09:26:14.153Z,3.60
2023-07-10T09:27:14.123Z,4.70
2023-07-10T09:28:14.144Z,4.50
2023-07-10T09:29:14.099Z,4.80
2023-07-10T09:30:14.096Z,4.70
2023-07-10T09:31:14.081Z,4.90
2023-07-10T09:32:14.145Z,5.40
2023-07-10T09:33:14.092Z,4.10
2023-07-10T09:34:14.056Z,4.40
2023-07-10T09:35:14.048Z,4.40
2023-07-10T09:36:14.040Z,5.60
2023-07-10T09:37:14.049Z,4.20
2023-07-10T09:38:14.032Z,4.80
2023-07-10T09:39:14.004Z,3.80
2023-07-10T09:40:14.007Z,4.20
2023-07-10T09:41:13.989Z,5.70
2023-07-10T09:42:14.000Z,3.90
2023-07-10T09:43:13.974Z,3.40
2023-07-10T09:44:13.957Z,5.50
2023-07-10T09:45:13.947Z,6.60
2023-07-10T09:46:13.984Z,4.30
2023-07-10T09:47:13.935Z,4.80
2023-07-10T09:48:13.924Z,5.80
2023-07-10T09:49:13.914Z,4.20
2023-07-10T09:50:13.900Z,5.00
2023-07-10T09:51:13.910Z,6.50
2023-07-10T09:52:13.885Z,4.30
2023-07-10T09:53:13.849Z,4.00
2023-07-10T09:54:13.973Z,3.50
2023-07-10T09:55:13.848Z,3.00
2023-07-10T09:56:13.859Z,3.20
2023-07-10T09:57:13.817Z,6.20
2023-07-10T09:58:13.803Z,4.30
2023-07-10T09:59:13.834Z,3.70
2023-07-10T10:00:13.817Z,3.90
2023-07-10T10:01:13.837Z,3.80
2023-07-10T10:02:13.767Z,3.70
2023-07-10T10:03:13.842Z,4.10
2023-07-10T10:04:13.795Z,4.10
2023-07-10T10:05:13.759Z,2.70
2023-07-10T10:06:13.715Z,3.50
2023-07-10T10:07:13.711Z,3.70
2023-07-10T10:08:13.698Z,5.00
2023-07-10T10:09:13.692Z,4.90
2023-07-10T10:10:13.744Z,3.80
2023-07-10T10:11:13.717Z,4.30
2023-07-10T10:12:13.673Z,3.10
2023-07-10T10:13:13.648Z,4.10
2023-07-10T10:14:13.806Z,4.00
2023-07-10T10:15:13.649Z,7.50
2023-07-10T10:16:13.664Z,4.90
2023-07-10T10:17:13.601Z,4.70
2023-07-10T10:18:13.848Z,3.20
2023-07-10T10:19:13.607Z,2.80
2023-07-10T10:20:13.669Z,3.60
2023-07-10T10:21:13.574Z,5.10
2023-07-10T10:22:13.572Z,3.80
2023-07-10T10:23:13.601Z,3.70
2023-07-10T10:24:13.573Z,3.70
2023-07-10T10:25:13.591Z,5.00
2023-07-10T10:26:13.596Z,4.60
2023-07-10T10:27:13.578Z,5.20
2023-07-10T10:28:13.530Z,3.70
2023-07-10T10:29:13.567Z,4.80
2023-07-10T10:30:13.564Z,3.80
2023-07-10T10:31:13.517Z,5.10
2023-07-10T10:32:13.451Z,4.10
2023-07-10T10:33:14.466Z,3.10
2023-07-10T10:34:13.426Z,2.80
2023-07-10T10:35:13.416Z,3.00
2023-07-10T10:36:13.404Z,6.40
2023-07-10T10:37:13.461Z,3.00
2023-07-10T10:38:13.395Z,4.30
2023-07-10T10:39:13.412Z,4.90
2023-07-10T10:40:13.368Z,3.80
2023-07-10T10:41:13.356Z,3.60
2023-07-10T10:42:13.363Z,2.90
2023-07-10T10:43:13.446Z,2.80
2023-07-10T10:44:13.348Z,4.10
2023-07-10T10:45:13.354Z,5.20
2023-07-10T10:46:13.360Z,5.80
2023-07-10T10:47:13.374Z,4.50
2023-07-10T10:48:13.285Z,4.10
2023-07-10T10:49:13.283Z,3.50
2023-07-10T10:50:13.272Z,3.30
2023-07-10T10:51:13.290Z,6.30
2023-07-10T10:52:13.286Z,6.30
2023-07-10T10:53:13.273Z,7.50
2023-07-10T10:54:23.926Z,4.00
2023-07-10T10:55:13.222Z,4.30
2023-07-10T10:56:13.814Z,8.60
2023-07-10T10:57:13.192Z,4.70
2023-07-10T10:58:13.303Z,3.80
2023-07-10T10:59:13.175Z,3.50
2023-07-10T11:00:13.203Z,2.80
2023-07-10T11:01:13.210Z,5.70
2023-07-10T11:02:13.135Z,5.20
2023-07-10T11:03:13.230Z,5.60
2023-07-10T11:04:13.131Z,6.50
2023-07-10T11:05:13.157Z,10.10
2023-07-10T11:06:13.087Z,6.00
2023-07-10T11:07:13.088Z,3.30
2023-07-10T11:08:13.072Z,3.30
2023-07-10T11:09:13.075Z,6.70
2023-07-10T11:10:13.072Z,5.70
2023-07-10T11:11:13.041Z,4.90
2023-07-10T11:12:13.024Z,3.30
2023-07-10T11:13:13.034Z,3.70
2023-07-10T11:14:13.156Z,4.30
2023-07-10T11:15:13.023Z,4.70
2023-07-10T11:16:13.049Z,4.50
2023-07-10T11:17:12.980Z,2.70
2023-07-10T11:18:12.963Z,5.00
2023-07-10T11:19:12.986Z,3.20
2023-07-10T11:20:12.954Z,3.80
2023-07-10T11:21:12.940Z,3.80
2023-07-10T11:22:12.925Z,5.90
2023-07-10T11:23:13.039Z,3.70
2023-07-10T11:24:12.938Z,6.60
2023-07-10T11:25:12.928Z,6.90
2023-07-10T11:26:12.894Z,3.80
2023-07-10T11:27:12.890Z,4.20
2023-07-10T11:28:12.900Z,4.50
2023-07-10T11:29:13.432Z,5.20
2023-07-10T11:30:12.862Z,4.70
2023-07-10T11:31:12.886Z,6.20
2023-07-10T11:32:12.831Z,3.00
2023-07-10T11:33:13.043Z,3.50
2023-07-10T11:34:12.813Z,3.60
2023-07-10T11:35:19.190Z,3.50
2023-07-10T11:36:12.813Z,4.80
2023-07-10T11:37:12.774Z,4.00
2023-07-10T11:38:12.776Z,5.30
2023-07-10T11:39:12.809Z,5.50
2023-07-10T11:40:12.839Z,3.90
2023-07-10T11:41:12.750Z,4.20
2023-07-10T11:42:12.778Z,3.60
2023-07-10T11:43:12.788Z,4.20
2023-07-10T11:44:12.696Z,5.90
2023-07-10T11:45:12.713Z,2.00
2023-07-10T11:46:12.680Z,6.00
2023-07-10T11:47:12.844Z,4.90
2023-07-10T11:48:12.674Z,5.30
2023-07-10T11:49:12.663Z,3.10
2023-07-10T11:50:12.754Z,6.30
2023-07-10T11:51:12.658Z,2.70
2023-07-10T11:52:12.640Z,3.50
2023-07-10T11:53:12.643Z,3.80
2023-07-10T11:54:12.660Z,4.90
2023-07-10T11:55:12.598Z,4.60
2023-07-10T11:56:12.587Z,3.30
2023-07-10T11:57:12.598Z,4.40
2023-07-10T11:58:12.566Z,3.20
2023-07-10T11:59:12.597Z,4.20
2023-07-10T12:00:12.586Z,4.20
2023-07-10T12:01:13.215Z,2.70
2023-07-10T12:02:12.526Z,4.70
2023-07-10T12:03:12.540Z,2.70
2023-07-10T12:04:12.520Z,3.30
2023-07-10T12:05:12.537Z,6.20
2023-07-10T12:06:12.482Z,3.80
2023-07-10T12:07:12.461Z,5.50
2023-07-10T12:08:12.451Z,4.40
2023-07-10T12:09:12.441Z,5.30
2023-07-10T12:10:12.485Z,6.30
2023-07-10T12:11:12.427Z,2.10
2023-07-10T12:12:12.406Z,2.60
2023-07-10T12:13:12.407Z,4.40
2023-07-10T12:14:12.530Z,2.60
2023-07-10T12:15:12.419Z,5.30
2023-07-10T12:16:12.367Z,4.10
2023-07-10T12:17:39.035Z,3.20
2023-07-10T12:18:12.429Z,4.70
2023-07-10T12:19:12.431Z,4.00
2023-07-10T12:20:12.408Z,5.80
2023-07-10T12:21:12.320Z,4.50
2023-07-10T12:22:12.317Z,3.60
2023-07-10T12:23:12.368Z,3.70
2023-07-10T12:24:12.300Z,2.60
2023-07-10T12:25:12.278Z,4.20
2023-07-10T12:26:12.278Z,2.90
2023-07-10T12:29:12.260Z,5.00
2023-07-10T12:30:12.364Z,2.60
2023-07-10T12:31:12.265Z,3.10
2023-07-10T12:32:12.204Z,3.90
2023-07-10T12:33:12.216Z,2.50
2023-07-10T12:34:12.202Z,3.30
2023-07-10T12:35:12.177Z,3.20
2023-07-10T12:36:12.165Z,2.60
2023-07-10T12:37:12.172Z,3.40
2023-07-10T12:38:12.155Z,2.30
2023-07-10T12:39:12.143Z,6.60
2023-07-10T12:40:12.124Z,3.20
2023-07-10T12:41:12.137Z,4.10
2023-07-10T12:42:12.131Z,3.00
2023-07-10T12:43:12.104Z,3.10
2023-07-10T12:44:12.071Z,5.20
2023-07-10T12:45:12.083Z,3.60
2023-07-10T12:46:12.096Z,3.80
2023-07-10T12:47:12.106Z,3.30
2023-07-10T12:48:12.094Z,4.00
2023-07-10T12:49:12.053Z,5.10
2023-07-10T12:50:12.013Z,7.70
2023-07-10T12:51:12.010Z,4.10
2023-07-10T12:52:12.024Z,2.30
2023-07-10T12:53:11.996Z,2.50
2023-07-10T12:54:11.975Z,3.00
2023-07-10T12:55:12.023Z,4.90
2023-07-10T12:56:12.558Z,4.60
2023-07-10T12:57:11.992Z,5.40
2023-07-10T12:58:11.936Z,3.40
2023-07-10T12:59:11.978Z,3.10
2023-07-10T13:00:11.922Z,5.60
2023-07-10T13:01:12.528Z,3.90
2023-07-10T13:02:11.902Z,4.10
2023-07-10T13:03:11.987Z,3.30
2023-07-10T13:04:11.874Z,2.20
2023-07-10T13:05:11.877Z,4.40
2023-07-10T13:06:11.869Z,3.40
2023-07-10T13:07:25.101Z,3.20
2023-07-10T13:08:11.836Z,5.70
2023-07-10T13:09:11.826Z,2.70
2023-07-10T13:10:12.000Z,4.90
2023-07-10T13:11:11.835Z,7.60
2023-07-10T13:12:11.807Z,4.90
2023-07-10T13:13:11.793Z,4.90
2023-07-10T13:14:14.725Z,2.90
2023-07-10T13:15:11.787Z,2.80